createdAt,value
2023-12-23T00:00:37.458Z,94121.00
2023-12-23T00:01:37.488Z,94114.00
2023-12-23T00:02:37.472Z,94128.00
2023-12-23T00:03:37.580Z,94129.00
2023-12-23T00:04:37.486Z,94122.00
2023-12-23T00:05:37.468Z,94122.00
2023-12-23T00:06:37.452Z,94127.00
2023-12-23T00:07:37.563Z,94135.00
2023-12-23T00:08:37.452Z,94132.00
2023-12-23T00:09:37.504Z,94137.00
2023-12-23T00:10:37.472Z,94111.00
2023-12-23T00:11:37.444Z,94116.00
2023-12-23T00:12:37.503Z,94127.00
2023-12-23T00:13:37.544Z,94141.00
2023-12-23T00:14:37.434Z,94141.00
2023-12-23T00:15:37.498Z,94140.00
2023-12-23T00:16:37.495Z,94129.00
2023-12-23T00:17:37.926Z,94134.00
2023-12-23T00:18:37.686Z,94144.00
2023-12-23T00:19:37.573Z,94131.00
2023-12-23T00:20:37.580Z,94134.00
2023-12-23T00:21:37.504Z,94136.00
2023-12-23T00:22:37.513Z,94142.00
2023-12-23T00:23:37.487Z,94151.00
2023-12-23T00:24:37.484Z,94137.00
2023-12-23T00:25:37.504Z,94140.00
2023-12-23T00:26:37.473Z,94124.00
2023-12-23T00:27:37.551Z,94122.00
2023-12-23T00:28:37.553Z,94135.00
2023-12-23T00:29:37.466Z,94146.00
2023-12-23T00:30:37.474Z,94159.00
2023-12-23T00:31:37.528Z,94138.00
2023-12-23T00:32:37.508Z,94150.00
2023-12-23T00:33:37.494Z,94154.00
2023-12-23T00:34:37.513Z,94156.00
2023-12-23T00:35:37.500Z,94159.00
2023-12-23T00:36:37.528Z,94146.00
2023-12-23T00:37:37.591Z,94160.00
2023-12-23T00:38:37.487Z,94153.00
2023-12-23T00:39:37.468Z,94157.00
2023-12-23T00:40:37.539Z,94147.00
2023-12-23T00:41:37.515Z,94142.00
2023-12-23T00:42:37.587Z,94159.00
2023-12-23T00:43:37.598Z,94169.00
2023-12-23T00:44:37.559Z,94166.00
2023-12-23T00:45:37.623Z,94171.00
2023-12-23T00:46:37.824Z,94182.00
2023-12-23T00:47:38.797Z,94174.00
2023-12-23T00:48:37.782Z,94157.00
2023-12-23T00:49:37.839Z,94170.00
2023-12-23T00:50:37.823Z,94157.00
2023-12-23T00:51:37.890Z,94163.00
2023-12-23T00:52:37.938Z,94165.00
2023-12-23T00:53:37.984Z,94163.00
2023-12-23T00:54:38.037Z,94176.00
2023-12-23T00:55:38.167Z,94165.00
2023-12-23T00:56:38.164Z,94160.00
2023-12-23T00:57:38.148Z,94174.00
2023-12-23T00:58:38.244Z,94166.00
2023-12-23T00:59:38.260Z,94158.00
2023-12-23T01:00:38.337Z,94171.00
2023-12-23T01:01:38.462Z,94171.00
2023-12-23T01:02:38.400Z,94174.00
2023-12-23T01:03:38.485Z,94177.00
2023-12-23T01:04:38.540Z,94158.00
2023-12-23T01:05:38.600Z,94161.00
2023-12-23T01:06:38.648Z,94169.00
2023-12-23T01:07:38.729Z,94161.00
2023-12-23T01:08:38.738Z,94186.00
2023-12-23T01:09:38.753Z,94187.00
2023-12-23T01:10:38.831Z,94183.00
2023-12-23T01:11:38.866Z,94191.00
2023-12-23T01:12:38.879Z,94188.00
2023-12-23T01:13:39.012Z,94184.00
2023-12-23T01:14:39.001Z,94187.00
2023-12-23T01:15:39.075Z,94182.00
2023-12-23T01:16:39.135Z,94200.00
2023-12-23T01:17:39.262Z,94192.00
2023-12-23T01:18:39.408Z,94194.00
2023-12-23T01:19:39.344Z,94198.00
2023-12-23T01:20:39.328Z,94214.00
2023-12-23T01:21:39.459Z,94207.00
2023-12-23T01:22:39.504Z,94213.00
2023-12-23T01:23:39.517Z,94213.00
2023-12-23T01:24:39.571Z,94214.00
2023-12-23T01:25:39.640Z,94216.00
2023-12-23T01:26:39.675Z,94214.00
2023-12-23T01:27:39.726Z,94215.00
2023-12-23T01:28:39.835Z,94223.00
2023-12-23T01:29:39.821Z,94215.00
2023-12-23T01:30:39.936Z,94224.00
2023-12-23T01:31:39.988Z,94214.00
2023-12-23T01:32:39.984Z,94240.00
2023-12-23T01:33:40.119Z,94226.00
2023-12-23T01:34:40.127Z,94235.00
2023-12-23T01:35:40.159Z,94217.00
2023-12-23T01:36:40.230Z,94231.00
2023-12-23T01:37:40.302Z,94235.00
2023-12-23T01:38:40.322Z,94224.00
2023-12-23T01:39:40.386Z,94228.00
2023-12-23T01:40:40.463Z,94220.00
2023-12-23T01:41:40.440Z,94218.00
2023-12-23T01:42:40.497Z,94225.00
2023-12-23T01:43:40.565Z,94216.00
2023-12-23T01:44:40.612Z,94224.00
2023-12-23T01:45:40.663Z,94227.00
2023-12-23T01:46:40.719Z,94215.00
2023-12-23T01:47:40.848Z,94221.00
2023-12-23T01:48:40.866Z,94240.00
2023-12-23T01:49:40.874Z,94213.00
2023-12-23T01:50:40.950Z,94224.00
2023-12-23T01:51:40.996Z,94224.00
2023-12-23T01:52:41.033Z,94249.00
2023-12-23T01:53:41.079Z,94238.00
2023-12-23T01:54:41.177Z,94234.00
2023-12-23T01:55:41.223Z,94222.00
2023-12-23T01:56:41.269Z,94247.00
2023-12-23T01:57:41.319Z,94236.00
2023-12-23T01:58:41.327Z,94250.00
2023-12-23T01:59:41.417Z,94251.00
2023-12-23T02:00:41.461Z,94263.00
2023-12-23T02:01:41.659Z,94266.00
2023-12-23T02:02:41.767Z,94265.00
2023-12-23T02:03:41.645Z,94262.00
2023-12-23T02:04:41.645Z,94277.00
2023-12-23T02:05:41.763Z,94267.00
2023-12-23T02:06:41.779Z,94280.00
2023-12-23T02:07:41.804Z,94274.00
2023-12-23T02:08:41.846Z,94284.00
2023-12-23T02:09:41.934Z,94266.00
2023-12-23T02:10:42.012Z,94265.00
2023-12-23T02:11:42.054Z,94285.00
2023-12-23T02:12:43.448Z,94285.00
2023-12-23T02:13:42.199Z,94285.00
2023-12-23T02:14:42.219Z,94274.00
2023-12-23T02:15:42.210Z,94291.00
2023-12-23T02:16:42.300Z,94278.00
2023-12-23T02:17:42.477Z,94284.00
2023-12-23T02:18:42.578Z,94288.00
2023-12-23T02:19:42.501Z,94306.00
2023-12-23T02:20:42.469Z,94293.00
2023-12-23T02:21:42.550Z,94290.00
2023-12-23T02:22:42.606Z,94290.00
2023-12-23T02:23:42.652Z,94289.00
2023-12-23T02:24:42.718Z,94301.00
2023-12-23T02:25:42.824Z,94293.00
2023-12-23T02:26:42.856Z,94313.00
2023-12-23T02:27:42.857Z,94306.00
2023-12-23T02:28:42.975Z,94306.00
2023-12-23T02:29:42.982Z,94295.00
2023-12-23T02:30:43.115Z,94293.00
2023-12-23T02:31:43.134Z,94297.00
2023-12-23T02:32:43.219Z,94312.00
2023-12-23T02:33:43.233Z,94305.00
2023-12-23T02:34:43.292Z,94302.00
2023-12-23T02:35:43.363Z,94309.00
2023-12-23T02:36:43.344Z,94326.00
2023-12-23T02:37:43.490Z,94323.00
2023-12-23T02:38:43.457Z,94325.00
2023-12-23T02:39:43.529Z,94333.00
2023-12-23T02:40:43.635Z,94341.00
2023-12-23T02:41:43.699Z,94331.00
2023-12-23T02:42:43.672Z,94343.00
2023-12-23T02:43:43.793Z,94339.00
2023-12-23T02:44:43.791Z,94346.00
2023-12-23T02:45:43.860Z,94334.00
2023-12-23T02:46:43.962Z,94350.00
2023-12-23T02:47:44.038Z,94351.00
2023-12-23T02:48:44.138Z,94348.00
2023-12-23T02:49:44.079Z,94354.00
2023-12-23T02:50:44.088Z,94353.00
2023-12-23T02:51:44.157Z,94342.00
2023-12-23T02:52:44.244Z,94354.00
2023-12-23T02:53:44.230Z,94363.00
2023-12-23T02:54:44.300Z,94363.00
2023-12-23T02:55:44.388Z,94363.00
2023-12-23T02:56:44.426Z,94353.00
2023-12-23T02:57:44.467Z,94356.00
2023-12-23T02:58:44.544Z,94358.00
2023-12-23T02:59:44.549Z,94357.00
2023-12-23T03:00:44.628Z,94365.00
2023-12-23T03:01:44.750Z,94371.00
2023-12-23T03:02:44.700Z,94378.00
2023-12-23T03:03:44.786Z,94370.00
2023-12-23T03:04:44.874Z,94369.00
2023-12-23T03:05:44.920Z,94394.00
2023-12-23T03:06:44.950Z,94380.00
2023-12-23T03:07:44.999Z,94406.00
2023-12-23T03:08:44.996Z,94385.00
2023-12-23T03:09:45.070Z,94384.00
2023-12-23T03:10:45.172Z,94386.00
2023-12-23T03:11:45.188Z,94379.00
2023-12-23T03:12:45.234Z,94385.00
2023-12-23T03:13:45.329Z,94382.00
2023-12-23T03:14:45.340Z,94381.00
2023-12-23T03:15:45.404Z,94389.00
2023-12-23T03:16:45.491Z,94396.00
2023-12-23T03:17:45.575Z,94398.00
2023-12-23T03:18:45.562Z,94389.00
2023-12-23T03:19:45.605Z,94391.00
2023-12-23T03:20:45.667Z,94396.00
2023-12-23T03:21:45.726Z,94392.00
2023-12-23T03:22:45.766Z,94391.00
2023-12-23T03:23:45.779Z,94400.00
2023-12-23T03:24:45.893Z,94389.00
2023-12-23T03:25:46.892Z,94389.00
2023-12-23T03:26:45.948Z,94396.00
2023-12-23T03:27:46.030Z,94392.00
2023-12-23T03:28:46.101Z,94381.00
2023-12-23T03:29:46.090Z,94385.00
2023-12-23T03:30:46.213Z,94394.00
2023-12-23T03:31:46.256Z,94402.00
2023-12-23T03:32:46.334Z,94405.00
2023-12-23T03:33:46.323Z,94406.00
2023-12-23T03:34:46.364Z,94401.00
2023-12-23T03:35:46.423Z,94408.00
2023-12-23T03:36:46.492Z,94415.00
2023-12-23T03:37:46.648Z,94401.00
2023-12-23T03:38:47.364Z,94396.00
2023-12-23T03:39:46.640Z,94413.00
2023-12-23T03:40:46.716Z,94414.00
2023-12-23T03:41:46.755Z,94415.00
2023-12-23T03:42:47.011Z,94413.00
2023-12-23T03:43:46.914Z,94406.00
2023-12-23T03:44:46.904Z,94418.00
2023-12-23T03:45:47.080Z,94397.00
2023-12-23T03:46:47.040Z,94419.00
2023-12-23T03:47:47.066Z,94412.00
2023-12-23T03:48:47.136Z,94415.00
2023-12-23T03:49:47.203Z,94416.00
2023-12-23T03:50:47.216Z,94413.00
2023-12-23T03:51:47.288Z,94415.00
2023-12-23T03:52:47.424Z,94410.00
2023-12-23T03:53:47.431Z,94419.00
2023-12-23T03:54:47.450Z,94410.00
2023-12-23T03:55:47.550Z,94417.00
2023-12-23T03:56:50.857Z,94417.00
2023-12-23T03:57:47.566Z,94412.00
2023-12-23T03:58:47.661Z,94406.00
2023-12-23T03:59:47.577Z,94423.00
2023-12-23T04:00:47.600Z,94424.00
2023-12-23T04:01:47.604Z,94420.00
2023-12-23T04:02:47.864Z,94423.00
2023-12-23T04:03:47.631Z,94419.00
2023-12-23T04:04:47.689Z,94421.00
2023-12-23T04:05:47.568Z,94421.00
2023-12-23T04:06:47.622Z,94424.00
2023-12-23T04:07:47.643Z,94431.00
2023-12-23T04:08:47.595Z,94430.00
2023-12-23T04:09:47.602Z,94424.00
2023-12-23T04:10:47.603Z,94433.00
2023-12-23T04:11:47.582Z,94438.00
2023-12-23T04:12:47.772Z,94444.00
2023-12-23T04:13:47.606Z,94431.00
2023-12-23T04:14:47.603Z,94432.00
2023-12-23T04:15:47.591Z,94434.00
2023-12-23T04:16:47.630Z,94436.00
2023-12-23T04:17:47.701Z,94425.00
2023-12-23T04:18:47.670Z,94436.00
2023-12-23T04:19:47.660Z,94442.00
2023-12-23T04:20:47.674Z,94436.00
2023-12-23T04:21:47.764Z,94450.00
2023-12-23T04:22:47.956Z,94435.00
2023-12-23T04:23:47.897Z,94444.00
2023-12-23T04:24:47.899Z,94438.00
2023-12-23T04:25:48.008Z,94442.00
2023-12-23T04:26:48.037Z,94450.00
2023-12-23T04:27:48.106Z,94455.00
2023-12-23T04:28:48.173Z,94440.00
2023-12-23T04:29:48.276Z,94443.00
2023-12-23T04:30:48.421Z,94447.00
2023-12-23T04:31:48.470Z,94451.00
2023-12-23T04:32:48.993Z,94456.00
2023-12-23T04:33:48.576Z,94458.00
2023-12-23T04:34:48.551Z,94454.00
2023-12-23T04:35:48.560Z,94445.00
2023-12-23T04:36:48.623Z,94461.00
2023-12-23T04:37:48.702Z,94454.00
2023-12-23T04:38:48.734Z,94460.00
2023-12-23T04:39:48.796Z,94458.00
2023-12-23T04:40:48.899Z,94460.00
2023-12-23T04:41:48.971Z,94462.00
2023-12-23T04:42:56.283Z,94447.00
2023-12-23T04:43:56.307Z,94452.00
2023-12-23T04:44:56.262Z,94460.00
2023-12-23T04:45:56.289Z,94462.00
2023-12-23T04:46:56.289Z,94447.00
2023-12-23T04:47:56.313Z,94455.00
2023-12-23T04:48:56.321Z,94463.00
2023-12-23T04:49:56.309Z,94472.00
2023-12-23T04:50:56.301Z,94466.00
2023-12-23T04:51:56.307Z,94460.00
2023-12-23T04:52:56.386Z,94460.00
2023-12-23T04:53:56.358Z,94468.00
2023-12-23T04:54:56.416Z,94465.00
2023-12-23T04:55:56.488Z,94469.00
2023-12-23T04:56:56.520Z,94472.00
2023-12-23T04:57:56.576Z,94466.00
2023-12-23T04:58:57.122Z,94469.00
2023-12-23T04:59:56.608Z,94468.00
2023-12-23T05:00:56.704Z,94466.00
2023-12-23T05:01:56.781Z,94463.00
2023-12-23T05:02:56.784Z,94466.00
2023-12-23T05:03:56.809Z,94457.00
2023-12-23T05:04:56.870Z,94467.00
2023-12-23T05:05:56.913Z,94472.00
2023-12-23T05:06:56.924Z,94470.00
2023-12-23T05:07:56.953Z,94468.00
2023-12-23T05:08:57.011Z,94457.00
2023-12-23T05:09:57.067Z,94458.00
2023-12-23T05:10:57.091Z,94470.00
2023-12-23T05:11:57.112Z,94461.00
2023-12-23T05:12:57.146Z,94464.00
2023-12-23T05:13:57.265Z,94467.00
2023-12-23T05:14:57.247Z,94469.00
2023-12-23T05:15:57.287Z,94464.00
2023-12-23T05:16:57.365Z,94468.00
2023-12-23T05:17:57.440Z,94473.00
2023-12-23T05:18:57.530Z,94474.00
2023-12-23T05:19:57.481Z,94473.00
2023-12-23T05:20:57.475Z,94477.00
2023-12-23T05:21:57.504Z,94462.00
2023-12-23T05:22:57.525Z,94470.00
2023-12-23T05:23:57.572Z,94473.00
2023-12-23T05:24:57.597Z,94470.00
2023-12-23T05:25:57.640Z,94476.00
2023-12-23T05:27:00.089Z,94477.00
2023-12-23T05:27:57.678Z,94478.00
2023-12-23T05:28:57.680Z,94465.00
2023-12-23T05:29:57.680Z,94470.00
2023-12-23T05:30:57.714Z,94482.00
2023-12-23T05:31:57.707Z,94469.00
2023-12-23T05:32:57.716Z,94457.00
2023-12-23T05:33:57.797Z,94468.00
2023-12-23T05:34:57.746Z,94463.00
2023-12-23T05:35:57.674Z,94471.00
2023-12-23T05:36:57.697Z,94472.00
2023-12-23T05:37:58.941Z,94454.00
2023-12-23T05:38:57.691Z,94457.00
2023-12-23T05:39:57.674Z,94452.00
2023-12-23T05:40:57.707Z,94453.00
2023-12-23T05:41:57.704Z,94454.00
2023-12-23T05:42:57.714Z,94456.00
2023-12-23T05:43:57.730Z,94461.00
2023-12-23T05:44:57.726Z,94468.00
2023-12-23T05:45:57.785Z,94463.00
2023-12-23T05:46:57.873Z,94468.00
2023-12-23T05:47:57.894Z,94459.00
2023-12-23T05:48:58.066Z,94464.00
2023-12-23T05:49:57.966Z,94471.00
2023-12-23T05:50:58.001Z,94467.00
2023-12-23T05:51:58.050Z,94464.00
2023-12-23T05:52:58.097Z,94472.00
2023-12-23T05:53:58.131Z,94477.00
2023-12-23T05:54:58.145Z,94473.00
2023-12-23T05:55:58.263Z,94468.00
2023-12-23T05:56:58.281Z,94454.00
2023-12-23T05:57:58.274Z,94455.00
2023-12-23T05:58:58.316Z,94460.00
2023-12-23T05:59:58.329Z,94463.00
2023-12-23T06:00:58.361Z,94460.00
2023-12-23T06:01:58.428Z,94457.00
2023-12-23T06:02:58.432Z,94461.00
2023-12-23T06:03:58.540Z,94458.00
2023-12-23T06:04:58.637Z,94467.00
2023-12-23T06:05:58.597Z,94472.00
2023-12-23T06:06:58.603Z,94465.00
2023-12-23T06:07:58.660Z,94471.00
2023-12-23T06:08:58.674Z,94464.00
2023-12-23T06:09:58.741Z,94476.00
2023-12-23T06:10:59.689Z,94483.00
2023-12-23T06:11:58.768Z,94479.00
2023-12-23T06:12:58.809Z,94477.00
2023-12-23T06:13:58.899Z,94471.00
2023-12-23T06:14:58.894Z,94465.00
2023-12-23T06:15:58.937Z,94471.00
2023-12-23T06:16:59.040Z,94477.00
2023-12-23T06:18:01.097Z,94474.00
2023-12-23T06:18:59.072Z,94473.00
2023-12-23T06:19:59.114Z,94470.00
2023-12-23T06:20:59.118Z,94482.00
2023-12-23T06:21:59.177Z,94487.00
2023-12-23T06:22:59.275Z,94475.00
2023-12-23T06:23:59.234Z,94473.00
2023-12-23T06:24:59.291Z,94470.00
2023-12-23T06:25:59.287Z,94476.00
2023-12-23T06:26:59.342Z,94488.00
2023-12-23T06:27:59.372Z,94488.00
2023-12-23T06:28:59.438Z,94479.00
2023-12-23T06:29:59.459Z,94472.00
2023-12-23T06:30:59.570Z,94462.00
2023-12-23T06:31:59.548Z,94469.00
2023-12-23T06:32:59.725Z,94479.00
2023-12-23T06:33:59.686Z,94471.00
2023-12-23T06:34:59.699Z,94479.00
2023-12-23T06:35:59.720Z,94484.00
2023-12-23T06:36:59.740Z,94479.00
2023-12-23T06:37:59.812Z,94466.00
2023-12-23T06:38:59.810Z,94462.00
2023-12-23T06:39:59.855Z,94467.00
2023-12-23T06:40:59.905Z,94471.00
2023-12-23T06:41:59.950Z,94477.00
2023-12-23T06:42:59.976Z,94470.00
2023-12-23T06:44:00.035Z,94468.00
2023-12-23T06:45:00.065Z,94473.00
2023-12-23T06:46:00.111Z,94470.00
2023-12-23T06:47:00.160Z,94460.00
2023-12-23T06:48:00.352Z,94461.00
2023-12-23T06:49:00.307Z,94461.00
2023-12-23T06:50:00.302Z,94467.00
2023-12-23T06:51:00.309Z,94462.00
2023-12-23T06:52:00.335Z,94461.00
2023-12-23T06:53:00.348Z,94458.00
2023-12-23T06:54:00.347Z,94447.00
2023-12-23T06:55:00.441Z,94450.00
2023-12-23T06:56:00.470Z,94455.00
2023-12-23T06:57:00.488Z,94460.00
2023-12-23T06:58:00.546Z,94462.00
2023-12-23T06:59:00.589Z,94452.00
2023-12-23T07:00:00.589Z,94464.00
2023-12-23T07:01:00.670Z,94462.00
2023-12-23T07:02:00.685Z,94462.00
2023-12-23T07:03:00.711Z,94466.00
2023-12-23T07:04:00.789Z,94460.00
2023-12-23T07:05:01.067Z,94462.00
2023-12-23T07:06:00.927Z,94472.00
2023-12-23T07:07:00.860Z,94465.00
2023-12-23T07:08:00.963Z,94471.00
2023-12-23T07:09:00.917Z,94469.00
2023-12-23T07:10:05.040Z,94472.00
2023-12-23T07:11:02.069Z,94469.00
2023-12-23T07:12:01.005Z,94468.00
2023-12-23T07:13:00.964Z,94471.00
2023-12-23T07:14:01.003Z,94473.00
2023-12-23T07:15:00.978Z,94476.00
2023-12-23T07:16:00.970Z,94488.00
2023-12-23T07:17:01.030Z,94470.00
2023-12-23T07:18:01.125Z,94484.00
2023-12-23T07:19:01.047Z,94481.00
2023-12-23T07:20:00.999Z,94493.00
2023-12-23T07:21:00.973Z,94496.00
2023-12-23T07:22:01.010Z,94479.00
2023-12-23T07:23:00.989Z,94489.00
2023-12-23T07:24:00.998Z,94497.00
2023-12-23T07:25:01.029Z,94505.00
2023-12-23T07:26:01.102Z,94502.00
2023-12-23T07:27:01.088Z,94503.00
2023-12-23T07:28:01.176Z,94507.00
2023-12-23T07:29:01.220Z,94508.00
2023-12-23T07:30:01.224Z,94506.00
2023-12-23T07:31:01.358Z,94507.00
2023-12-23T07:32:01.314Z,94502.00
2023-12-23T07:33:01.484Z,94502.00
2023-12-23T07:34:01.581Z,94508.00
2023-12-23T07:35:01.424Z,94507.00
2023-12-23T07:36:01.468Z,94512.00
2023-12-23T07:37:01.529Z,94514.00
2023-12-23T07:38:01.613Z,94500.00
2023-12-23T07:39:01.554Z,94511.00
2023-12-23T07:40:01.626Z,94513.00
2023-12-23T07:41:01.660Z,94510.00
2023-12-23T07:42:01.695Z,94507.00
2023-12-23T07:43:01.725Z,94517.00
2023-12-23T07:44:01.812Z,94516.00
2023-12-23T07:45:02.793Z,94510.00
2023-12-23T07:46:01.827Z,94507.00
2023-12-23T07:47:01.923Z,94516.00
2023-12-23T07:48:01.971Z,94524.00
2023-12-23T07:49:02.012Z,94516.00
2023-12-23T07:50:02.085Z,94517.00
2023-12-23T07:51:02.011Z,94509.00
2023-12-23T07:52:02.075Z,94522.00
2023-12-23T07:53:02.154Z,94526.00
2023-12-23T07:54:02.259Z,94533.00
2023-12-23T07:55:02.167Z,94525.00
2023-12-23T07:56:02.288Z,94515.00
2023-12-23T07:57:02.245Z,94516.00
2023-12-23T07:58:02.289Z,94517.00
2023-12-23T07:59:02.395Z,94519.00
2023-12-23T08:00:02.393Z,94525.00
2023-12-23T08:01:02.588Z,94524.00
2023-12-23T08:02:02.482Z,94522.00
2023-12-23T08:03:02.474Z,94519.00
2023-12-23T08:04:02.686Z,94525.00
2023-12-23T08:05:02.691Z,94522.00
2023-12-23T08:06:02.692Z,94507.00
2023-12-23T08:07:02.621Z,94505.00
2023-12-23T08:08:02.706Z,94511.00
2023-12-23T08:09:02.709Z,94512.00
2023-12-23T08:10:02.762Z,94503.00
2023-12-23T08:11:02.801Z,94494.00
2023-12-23T08:12:02.866Z,94480.00
2023-12-23T08:13:02.883Z,94490.00
2023-12-23T08:14:02.950Z,94485.00
2023-12-23T08:15:02.934Z,94490.00
2023-12-23T08:16:02.930Z,94500.00
2023-12-23T08:17:03.030Z,94493.00
2023-12-23T08:18:03.168Z,94488.00
2023-12-23T08:19:03.098Z,94486.00
2023-12-23T08:20:03.181Z,94486.00
2023-12-23T08:21:03.153Z,94484.00
2023-12-23T08:22:03.223Z,94483.00
2023-12-23T08:23:03.292Z,94483.00
2023-12-23T08:24:03.253Z,94479.00
2023-12-23T08:25:03.318Z,94477.00
2023-12-23T08:26:03.352Z,94472.00
2023-12-23T08:27:03.373Z,94475.00
2023-12-23T08:28:03.406Z,94460.00
2023-12-23T08:29:03.493Z,94471.00
2023-12-23T08:30:03.479Z,94483.00
2023-12-23T08:31:03.555Z,94480.00
2023-12-23T08:32:03.627Z,94472.00
2023-12-23T08:33:03.695Z,94468.00
2023-12-23T08:34:03.750Z,94470.00
2023-12-23T08:35:03.727Z,94485.00
2023-12-23T08:36:03.706Z,94483.00
2023-12-23T08:37:03.799Z,94490.00
2023-12-23T08:38:03.823Z,94496.00
2023-12-23T08:39:03.813Z,94492.00
2023-12-23T08:40:03.857Z,94488.00
2023-12-23T08:41:03.935Z,94482.00
2023-12-23T08:42:03.944Z,94478.00
2023-12-23T08:43:03.971Z,94486.00
2023-12-23T08:44:04.080Z,94490.00
2023-12-23T08:45:04.061Z,94485.00
2023-12-23T08:46:04.079Z,94495.00
2023-12-23T08:47:04.112Z,94507.00
2023-12-23T08:48:04.322Z,94494.00
2023-12-23T08:49:04.245Z,94490.00
2023-12-23T08:50:04.314Z,94498.00
2023-12-23T08:51:04.250Z,94494.00
2023-12-23T08:52:04.281Z,94491.00
2023-12-23T08:53:04.315Z,94483.00
2023-12-23T08:54:04.362Z,94482.00
2023-12-23T08:55:04.399Z,94480.00
2023-12-23T08:56:04.521Z,94487.00
2023-12-23T08:57:04.483Z,94483.00
2023-12-23T08:58:04.535Z,94486.00
2023-12-23T08:59:04.564Z,94487.00
2023-12-23T09:00:04.570Z,94487.00
2023-12-23T09:01:04.676Z,94494.00
2023-12-23T09:02:05.045Z,94485.00
2023-12-23T09:03:04.750Z,94484.00
2023-12-23T09:04:04.720Z,94478.00
2023-12-23T09:05:04.841Z,94474.00
2023-12-23T09:06:04.822Z,94486.00
2023-12-23T09:07:04.812Z,94483.00
2023-12-23T09:08:04.938Z,94472.00
2023-12-23T09:09:05.090Z,94479.00
2023-12-23T09:10:04.960Z,94474.00
2023-12-23T09:11:04.988Z,94465.00
2023-12-23T09:12:05.043Z,94467.00
2023-12-23T09:13:05.094Z,94486.00
2023-12-23T09:14:05.159Z,94479.00
2023-12-23T09:15:05.141Z,94468.00
2023-12-23T09:16:05.201Z,94482.00
2023-12-23T09:17:05.255Z,94486.00
2023-12-23T09:18:05.368Z,94483.00
2023-12-23T09:19:05.362Z,94475.00
2023-12-23T09:20:05.412Z,94473.00
2023-12-23T09:21:05.361Z,94477.00
2023-12-23T09:22:05.429Z,94485.00
2023-12-23T09:23:05.418Z,94483.00
2023-12-23T09:24:05.476Z,94478.00
2023-12-23T09:25:05.517Z,94479.00
2023-12-23T09:26:05.620Z,94475.00
2023-12-23T09:27:05.597Z,94471.00
2023-12-23T09:28:05.615Z,94476.00
2023-12-23T09:29:05.682Z,94484.00
2023-12-23T09:30:05.739Z,94470.00
2023-12-23T09:31:05.739Z,94466.00
2023-12-23T09:32:05.803Z,94463.00
2023-12-23T09:33:05.908Z,94468.00
2023-12-23T09:34:06.019Z,94466.00
2023-12-23T09:35:06.578Z,94461.00
2023-12-23T09:36:05.930Z,94463.00
2023-12-23T09:37:05.989Z,94475.00
2023-12-23T09:38:06.121Z,94464.00
2023-12-23T09:39:06.059Z,94460.00
2023-12-23T09:40:06.112Z,94461.00
2023-12-23T09:41:06.190Z,94455.00
2023-12-23T09:42:06.210Z,94466.00
2023-12-23T09:43:06.238Z,94472.00
2023-12-23T09:44:06.299Z,94473.00
2023-12-23T09:45:06.260Z,94465.00
2023-12-23T09:46:06.314Z,94464.00
2023-12-23T09:47:06.425Z,94476.00
2023-12-23T09:48:06.454Z,94461.00
2023-12-23T09:49:07.633Z,94464.00
2023-12-23T09:50:06.493Z,94460.00
2023-12-23T09:51:06.495Z,94462.00
2023-12-23T09:52:06.559Z,94466.00
2023-12-23T09:53:06.601Z,94449.00
2023-12-23T09:54:06.656Z,94453.00
2023-12-23T09:55:07.117Z,94463.00
2023-12-23T09:56:06.699Z,94459.00
2023-12-23T09:57:06.771Z,94466.00
2023-12-23T09:58:06.794Z,94469.00
2023-12-23T09:59:06.855Z,94445.00
2023-12-23T10:00:06.905Z,94455.00
2023-12-23T10:01:06.945Z,94466.00
2023-12-23T10:02:07.033Z,94466.00
2023-12-23T10:03:07.036Z,94465.00
2023-12-23T10:04:07.021Z,94458.00
2023-12-23T10:05:07.147Z,94460.00
2023-12-23T10:06:07.213Z,94458.00
2023-12-23T10:07:07.171Z,94442.00
2023-12-23T10:08:07.212Z,94446.00
2023-12-23T10:09:07.233Z,94439.00
2023-12-23T10:10:07.266Z,94431.00
2023-12-23T10:11:07.371Z,94428.00
2023-12-23T10:12:07.383Z,94431.00
2023-12-23T10:13:07.430Z,94427.00
2023-12-23T10:14:07.511Z,94426.00
2023-12-23T10:15:07.590Z,94423.00
2023-12-23T10:16:07.594Z,94424.00
2023-12-23T10:17:07.632Z,94428.00
2023-12-23T10:18:07.692Z,94424.00
2023-12-23T10:19:07.726Z,94416.00
2023-12-23T10:20:07.732Z,94413.00
2023-12-23T10:21:07.786Z,94417.00
2023-12-23T10:22:07.810Z,94417.00
2023-12-23T10:23:07.927Z,94414.00
2023-12-23T10:24:07.900Z,94415.00
2023-12-23T10:25:07.981Z,94410.00
2023-12-23T10:26:08.019Z,94415.00
2023-12-23T10:27:08.047Z,94416.00
2023-12-23T10:28:08.077Z,94411.00
2023-12-23T10:29:08.163Z,94418.00
2023-12-23T10:30:08.196Z,94427.00
2023-12-23T10:31:08.186Z,94425.00
2023-12-23T10:32:08.276Z,94414.00
2023-12-23T10:33:08.351Z,94399.00
2023-12-23T10:34:08.381Z,94395.00
2023-12-23T10:35:08.400Z,94394.00
2023-12-23T10:36:08.423Z,94401.00
2023-12-23T10:37:08.431Z,94395.00
2023-12-23T10:38:08.543Z,94394.00
2023-12-23T10:39:08.498Z,94392.00
2023-12-23T10:40:08.631Z,94396.00
2023-12-23T10:41:08.649Z,94397.00
2023-12-23T10:42:08.646Z,94393.00
2023-12-23T10:43:08.698Z,94383.00
2023-12-23T10:44:08.754Z,94387.00
2023-12-23T10:45:08.765Z,94388.00
2023-12-23T10:46:08.827Z,94386.00
2023-12-23T10:47:08.902Z,94384.00
2023-12-23T10:48:09.000Z,94366.00
2023-12-23T10:49:09.670Z,94378.00
2023-12-23T10:50:09.015Z,94386.00
2023-12-23T10:51:08.991Z,94372.00
2023-12-23T10:52:09.041Z,94374.00
2023-12-23T10:53:09.151Z,94377.00
2023-12-23T10:54:09.122Z,94389.00
2023-12-23T10:55:09.163Z,94389.00
2023-12-23T10:56:09.217Z,94372.00
2023-12-23T10:57:09.220Z,94361.00
2023-12-23T10:58:09.288Z,94363.00
2023-12-23T10:59:09.348Z,94367.00
2023-12-23T11:00:09.351Z,94369.00
2023-12-23T11:01:09.467Z,94373.00
2023-12-23T11:02:09.459Z,94373.00
2023-12-23T11:03:09.445Z,94374.00
2023-12-23T11:04:09.483Z,94374.00
2023-12-23T11:05:09.563Z,94367.00
2023-12-23T11:06:09.562Z,94368.00
2023-12-23T11:07:09.591Z,94378.00
2023-12-23T11:08:16.469Z,94378.00
2023-12-23T11:09:10.648Z,94407.00
2023-12-23T11:10:09.633Z,94399.00
2023-12-23T11:11:09.631Z,94370.00
2023-12-23T11:12:09.652Z,94362.00
2023-12-23T11:13:09.631Z,94364.00
2023-12-23T11:14:09.694Z,94349.00
2023-12-23T11:15:09.643Z,94351.00
2023-12-23T11:16:09.622Z,94367.00
2023-12-23T11:17:09.633Z,94384.00
2023-12-23T11:18:09.893Z,94378.00
2023-12-23T11:19:09.762Z,94366.00
2023-12-23T11:20:09.732Z,94362.00
2023-12-23T11:21:09.663Z,94350.00
2023-12-23T11:22:09.665Z,94351.00
2023-12-23T11:23:09.749Z,94358.00
2023-12-23T11:24:09.700Z,94354.00
2023-12-23T11:25:09.755Z,94351.00
2023-12-23T11:26:09.786Z,94339.00
2023-12-23T11:27:09.828Z,94333.00
2023-12-23T11:28:09.989Z,94352.00
2023-12-23T11:29:09.996Z,94350.00
2023-12-23T11:30:10.085Z,94353.00
2023-12-23T11:31:09.973Z,94352.00
2023-12-23T11:32:10.077Z,94371.00
2023-12-23T11:33:10.090Z,94330.00
2023-12-23T11:34:10.160Z,94336.00
2023-12-23T11:35:10.190Z,94318.00
2023-12-23T11:36:10.160Z,94329.00
2023-12-23T11:37:10.173Z,94334.00
2023-12-23T11:38:10.368Z,94328.00
2023-12-23T11:39:10.238Z,94346.00
2023-12-23T11:40:10.270Z,94340.00
2023-12-23T11:41:10.318Z,94331.00
2023-12-23T11:42:10.342Z,94312.00
2023-12-23T11:43:10.391Z,94327.00
2023-12-23T11:44:10.485Z,94323.00
2023-12-23T11:45:10.494Z,94332.00